createdAt,value
2023-04-06T00:02:26.180Z,1.54
2023-04-06T00:05:31.513Z,1.45
2023-04-06T00:08:34.165Z,1.49
2023-04-06T00:11:36.533Z,1.38
2023-04-06T00:14:38.897Z,1.44
2023-04-06T00:17:42.160Z,1.51
2023-04-06T00:20:44.481Z,1.52
2023-04-06T00:23:46.853Z,1.69
2023-04-06T00:26:49.210Z,1.68
2023-04-06T00:29:51.531Z,1.79
2023-04-06T00:32:53.847Z,1.82
2023-04-06T00:35:56.329Z,1.83
2023-04-06T00:38:58.648Z,1.79
2023-04-06T00:42:01.589Z,1.69
2023-04-06T00:45:04.279Z,1.69
2023-04-06T00:48:07.454Z,1.65
2023-04-06T00:51:09.817Z,1.68
2023-04-06T00:54:12.216Z,1.69
2023-04-06T00:57:15.695Z,1.71
2023-04-06T01:00:19.708Z,1.62
2023-04-06T01:03:24.223Z,0.87
2023-04-06T01:06:27.147Z,0.36
2023-04-06T01:09:37.757Z,0.42
2023-04-06T01:12:47.366Z,0.63
2023-04-06T01:15:56.935Z,0.44
2023-04-06T01:19:38.048Z,0.35
2023-04-06T01:22:41.207Z,0.32
2023-04-06T01:25:43.638Z,0.35
2023-04-06T01:28:46.232Z,0.44
2023-04-06T01:32:01.418Z,0.52
2023-04-06T01:35:09.517Z,0.52
2023-04-06T01:38:18.017Z,0.55
2023-04-06T01:41:21.577Z,0.72
2023-04-06T01:44:27.502Z,0.73
2023-04-06T01:47:41.448Z,0.72
2023-04-06T01:50:44.262Z,0.11
2023-04-06T01:53:50.409Z,0.22
2023-04-06T01:56:54.387Z,-0.23
2023-04-06T02:00:08.150Z,-0.30
2023-04-06T02:03:16.718Z,-0.06
2023-04-06T02:06:20.562Z,0.02
2023-04-06T02:09:23.768Z,-0.36
2023-04-06T02:12:26.564Z,-0.52
2023-04-06T02:15:30.074Z,-0.45
2023-04-06T02:18:32.772Z,-0.30
2023-04-06T02:21:35.172Z,-0.22
2023-04-06T02:24:38.152Z,-0.23
2023-04-06T02:27:40.486Z,-0.27
2023-04-06T02:30:42.769Z,-0.67
2023-04-06T02:33:45.959Z,-1.25
2023-04-06T02:36:50.597Z,-1.42
2023-04-06T02:39:53.090Z,-1.16
2023-04-06T02:42:55.421Z,-0.85
2023-04-06T02:46:04.237Z,-0.73
2023-04-06T02:49:10.679Z,-0.70
2023-04-06T02:52:13.625Z,-0.49
2023-04-06T02:55:16.359Z,-0.60
2023-04-06T02:58:18.975Z,-0.91
2023-04-06T03:01:26.890Z,-0.96
2023-04-06T03:04:33.806Z,-0.88
2023-04-06T03:07:39.199Z,-0.84
2023-04-06T03:10:46.025Z,-0.84
2023-04-06T03:13:50.470Z,-0.87
2023-04-06T03:16:52.983Z,-0.84
2023-04-06T03:20:04.682Z,-0.85
2023-04-06T03:23:15.035Z,-1.19
2023-04-06T03:26:19.379Z,-1.20
2023-04-06T03:29:21.794Z,-1.56
2023-04-06T03:32:25.110Z,-1.38
2023-04-06T03:35:27.602Z,-1.42
2023-04-06T03:38:29.913Z,-1.32
2023-04-06T03:41:32.421Z,-1.35
2023-04-06T03:45:01.645Z,-1.56
2023-04-06T03:48:04.844Z,-1.64
2023-04-06T03:51:10.373Z,-1.46
2023-04-06T03:54:12.771Z,-1.47
2023-04-06T03:57:15.052Z,-1.56
2023-04-06T04:00:17.358Z,-1.57
2023-04-06T04:03:19.763Z,-2.04
2023-04-06T04:06:23.024Z,-2.45
2023-04-06T04:09:26.356Z,-2.53
2023-04-06T04:12:30.289Z,-2.21
2023-04-06T04:15:33.957Z,-2.55
2023-04-06T04:18:37.772Z,-2.79
2023-04-06T04:21:46.722Z,-2.48
2023-04-06T04:24:53.041Z,-2.32
2023-04-06T04:27:55.904Z,-2.25
2023-04-06T04:30:59.477Z,-2.48
2023-04-06T04:34:03.406Z,-2.21
2023-04-06T04:37:09.195Z,-2.94
2023-04-06T04:40:23.909Z,-2.76
2023-04-06T04:43:32.857Z,-2.99
2023-04-06T04:46:37.896Z,-3.04
2023-04-06T04:49:42.220Z,-3.00
2023-04-06T04:52:46.707Z,-3.01
2023-04-06T04:55:57.512Z,-3.01
2023-04-06T04:59:03.229Z,-3.04
2023-04-06T05:02:10.004Z,-3.13
2023-04-06T05:05:22.168Z,-2.89
2023-04-06T05:08:30.159Z,-2.75
2023-04-06T05:11:33.575Z,-2.53
2023-04-06T05:14:37.578Z,-2.15
2023-04-06T05:17:46.481Z,-1.59
2023-04-06T05:20:54.648Z,-1.26
2023-04-06T05:24:04.246Z,-0.99
2023-04-06T05:27:08.651Z,-0.78
2023-04-06T05:30:11.372Z,-0.74
2023-04-06T05:33:21.292Z,-0.41
2023-04-06T05:36:54.646Z,-0.19
2023-04-06T05:40:01.652Z,0.02
2023-04-06T05:43:05.627Z,0.05
2023-04-06T05:46:08.896Z,0.32
2023-04-06T05:49:11.734Z,0.56
2023-04-06T05:52:16.987Z,0.81
2023-04-06T05:55:22.267Z,1.14
2023-04-06T05:58:32.447Z,1.55
2023-04-06T06:01:36.151Z,2.00
2023-04-06T06:04:39.636Z,2.27
2023-04-06T06:07:43.134Z,2.54
2023-04-06T06:10:51.273Z,2.64
2023-04-06T06:13:57.908Z,2.77
2023-04-06T06:17:01.742Z,2.98
2023-04-06T06:20:06.524Z,3.20
2023-04-06T06:23:09.174Z,3.30
2023-04-06T06:26:12.074Z,3.67
2023-04-06T06:29:15.772Z,3.73
2023-04-06T06:32:19.661Z,4.04
2023-04-06T06:35:26.458Z,4.24
2023-04-06T06:38:29.674Z,4.32
2023-04-06T06:41:32.116Z,4.41
2023-04-06T06:44:35.842Z,4.76
2023-04-06T06:47:38.361Z,5.07
2023-04-06T06:50:40.776Z,5.31
2023-04-06T06:53:43.138Z,5.75
2023-04-06T06:56:47.019Z,6.00
2023-04-06T06:59:49.945Z,6.29
2023-04-06T07:02:56.010Z,6.38
2023-04-06T07:05:59.018Z,6.47
2023-04-06T07:09:08.743Z,6.84
2023-04-06T07:12:11.137Z,7.40
2023-04-06T07:15:13.591Z,8.16
2023-04-06T07:18:16.253Z,8.18
2023-04-06T07:21:18.878Z,8.42
2023-04-06T07:24:21.950Z,8.56
2023-04-06T07:27:26.596Z,8.55
2023-04-06T07:30:31.682Z,8.63
2023-04-06T07:33:41.035Z,8.56
2023-04-06T07:36:44.030Z,8.65
2023-04-06T07:39:47.519Z,9.71
2023-04-06T07:42:50.345Z,10.00
2023-04-06T07:45:58.325Z,10.82
2023-04-06T07:49:02.324Z,10.95
2023-04-06T07:52:09.139Z,10.68
2023-04-06T07:55:12.670Z,10.50
2023-04-06T07:58:14.984Z,10.29
2023-04-06T08:01:17.377Z,10.72
2023-04-06T08:04:20.617Z,11.69
2023-04-06T08:07:22.979Z,10.78
2023-04-06T08:10:25.257Z,10.68
2023-04-06T08:13:29.533Z,10.60
2023-04-06T08:16:31.815Z,10.34
2023-04-06T08:19:34.170Z,10.80
2023-04-06T08:22:36.546Z,10.60
2023-04-06T08:25:40.598Z,10.29
2023-04-06T08:28:45.675Z,10.09
2023-04-06T08:31:49.220Z,10.14
2023-04-06T08:34:55.488Z,10.29
2023-04-06T08:37:58.784Z,10.20
2023-04-06T08:41:09.435Z,9.51
2023-04-06T08:44:15.018Z,9.65
2023-04-06T08:47:17.343Z,10.28
2023-04-06T08:50:20.626Z,10.75
2023-04-06T08:53:24.365Z,11.12
2023-04-06T08:56:29.252Z,11.38
2023-04-06T08:59:33.610Z,11.73
2023-04-06T09:02:44.355Z,11.09
2023-04-06T09:05:49.061Z,11.04
2023-04-06T09:08:51.412Z,11.32
2023-04-06T09:11:54.009Z,12.01
2023-04-06T09:14:57.713Z,12.52
2023-04-06T09:18:00.160Z,12.86
2023-04-06T09:21:05.823Z,13.81
2023-04-06T09:24:10.385Z,13.63
2023-04-06T09:27:15.564Z,13.55
2023-04-06T09:30:19.112Z,12.61
2023-04-06T09:33:24.472Z,11.93
2023-04-06T09:36:35.232Z,12.35
2023-04-06T09:39:37.555Z,12.95
2023-04-06T09:42:42.771Z,12.88
2023-04-06T09:45:45.482Z,12.68
2023-04-06T09:48:48.719Z,12.64
2023-04-06T09:52:00.732Z,12.24
2023-04-06T09:55:05.961Z,12.32
2023-04-06T09:58:13.794Z,12.25
2023-04-06T10:01:21.325Z,12.27
2023-04-06T10:04:48.954Z,12.71
2023-04-06T10:08:00.096Z,13.60
2023-04-06T10:11:03.956Z,14.04
2023-04-06T10:14:07.008Z,14.79
2023-04-06T10:17:12.551Z,14.08
2023-04-06T10:20:30.504Z,13.39
2023-04-06T10:23:48.864Z,14.33
2023-04-06T10:27:04.026Z,14.59
2023-04-06T10:30:10.582Z,15.08
2023-04-06T10:33:21.970Z,15.97
2023-04-06T10:36:36.643Z,16.64
2023-04-06T10:39:55.905Z,17.40
2023-04-06T10:43:20.761Z,16.37
2023-04-06T10:46:32.422Z,14.98
2023-04-06T10:49:38.692Z,14.94
2023-04-06T10:52:44.518Z,14.53
2023-04-06T10:55:49.594Z,15.08
2023-04-06T10:58:57.129Z,15.86
2023-04-06T11:02:00.182Z,17.39
2023-04-06T11:05:03.451Z,17.56
2023-04-06T11:08:07.714Z,16.92
2023-04-06T11:11:17.207Z,17.39
2023-04-06T11:14:21.488Z,17.80
2023-04-06T11:17:28.143Z,17.69
2023-04-06T11:20:30.503Z,17.80
2023-04-06T11:23:33.367Z,19.14
2023-04-06T11:26:56.998Z,20.12
2023-04-06T11:30:01.256Z,20.29
2023-04-06T11:33:05.829Z,18.31
2023-04-06T11:36:08.552Z,18.58
2023-04-06T11:39:11.517Z,18.56
2023-04-06T11:42:13.870Z,18.47
2023-04-06T11:45:20.641Z,17.60
2023-04-06T11:48:25.404Z,17.38
2023-04-06T11:51:28.977Z,16.72
2023-04-06T11:54:36.965Z,16.82
2023-04-06T11:57:41.195Z,15.90
2023-04-06T12:00:47.442Z,16.03
2023-04-06T12:03:51.395Z,16.14
2023-04-06T12:06:53.827Z,15.85
2023-04-06T12:09:56.285Z,15.97
2023-04-06T12:12:59.380Z,15.78
2023-04-06T12:16:01.816Z,16.33
2023-04-06T12:19:04.641Z,16.29
2023-04-06T12:22:07.163Z,15.25
2023-04-06T12:25:09.830Z,15.28
2023-04-06T12:28:12.347Z,15.51
2023-04-06T12:31:32.911Z,15.24
2023-04-06T12:34:35.772Z,15.30
2023-04-06T12:37:38.174Z,15.59
2023-04-06T12:40:42.381Z,14.65
2023-04-06T12:43:46.782Z,15.23
2023-04-06T12:46:49.156Z,15.90
2023-04-06T12:49:51.743Z,16.74
2023-04-06T12:52:54.932Z,17.40
2023-04-06T12:55:58.662Z,18.18
2023-04-06T12:59:01.716Z,18.69
2023-04-06T13:02:07.383Z,18.05
2023-04-06T13:05:11.145Z,17.19
2023-04-06T13:08:17.644Z,16.88
2023-04-06T13:11:21.925Z,15.11
2023-04-06T13:14:26.152Z,15.79
2023-04-06T13:17:30.003Z,14.67
2023-04-06T13:20:32.418Z,16.23
2023-04-06T13:23:36.693Z,17.62
2023-04-06T13:26:39.852Z,18.21
2023-04-06T13:29:42.267Z,18.34
2023-04-06T13:32:45.567Z,17.71
2023-04-06T13:35:51.690Z,17.28
2023-04-06T13:38:55.206Z,17.32
2023-04-06T13:41:57.672Z,16.70
2023-04-06T13:45:00.478Z,15.68
2023-04-06T13:48:02.817Z,15.35
2023-04-06T13:51:15.594Z,15.68
2023-04-06T13:54:17.870Z,16.41
2023-04-06T13:57:20.092Z,15.03
2023-04-06T14:00:29.471Z,14.32
2023-04-06T14:03:32.655Z,14.14
2023-04-06T14:06:42.479Z,14.33
2023-04-06T14:09:44.967Z,14.26
2023-04-06T14:12:47.215Z,14.01
2023-04-06T14:15:55.132Z,13.64
2023-04-06T14:18:58.897Z,13.32
2023-04-06T14:22:01.444Z,12.58
2023-04-06T14:25:04.374Z,12.52
2023-04-06T14:28:06.605Z,12.16
2023-04-06T14:31:17.371Z,12.00
2023-04-06T14:34:22.279Z,11.60
2023-04-06T14:37:24.532Z,11.22
2023-04-06T14:40:26.799Z,11.18
2023-04-06T14:43:29.115Z,10.82
2023-04-06T14:46:31.482Z,10.84
2023-04-06T14:49:35.587Z,10.67
2023-04-06T14:52:38.200Z,10.75
2023-04-06T14:55:42.377Z,10.94
2023-04-06T14:58:44.626Z,10.72
2023-04-06T15:01:48.117Z,10.81
2023-04-06T15:04:51.067Z,10.65
2023-04-06T15:07:55.023Z,10.82
2023-04-06T15:11:00.537Z,10.92
2023-04-06T15:14:03.160Z,10.80
2023-04-06T15:17:05.463Z,10.67
2023-04-06T15:20:08.139Z,10.64
2023-04-06T15:23:10.410Z,10.70
2023-04-06T15:26:13.602Z,10.29
2023-04-06T15:29:16.760Z,10.37
2023-04-06T15:32:19.196Z,10.36
2023-04-06T15:35:21.623Z,10.29
2023-04-06T15:38:23.862Z,10.24
2023-04-06T15:41:27.086Z,9.98
2023-04-06T15:44:29.438Z,9.85
2023-04-06T15:47:31.768Z,9.95
2023-04-06T15:50:34.876Z,9.90
2023-04-06T15:53:41.770Z,10.02
2023-04-06T15:56:44.281Z,9.98
2023-04-06T15:59:46.662Z,10.05
2023-04-06T16:02:49.806Z,9.92
2023-04-06T16:09:02.559Z,9.95
2023-04-06T16:12:05.713Z,9.96
2023-04-06T16:15:08.436Z,9.99
2023-04-06T16:18:10.678Z,9.74
2023-04-06T16:21:20.002Z,9.52
2023-04-06T16:24:23.385Z,9.47
2023-04-06T16:27:26.499Z,9.48
2023-04-06T16:30:31.373Z,9.45
2023-04-06T16:33:35.859Z,9.35
2023-04-06T16:36:41.092Z,9.34
2023-04-06T16:39:43.396Z,9.34
2023-04-06T16:42:46.414Z,9.28
2023-04-06T16:45:54.938Z,9.18
2023-04-06T16:48:57.683Z,9.18
2023-04-06T16:52:02.969Z,9.13
2023-04-06T16:55:05.925Z,9.07
2023-04-06T16:58:08.206Z,9.00
2023-04-06T17:01:21.428Z,8.96
2023-04-06T17:04:24.214Z,8.80
2023-04-06T17:07:32.238Z,8.87
2023-04-06T17:10:41.585Z,8.66
2023-04-06T17:13:50.424Z,8.65
2023-04-06T17:16:52.717Z,8.49
2023-04-06T17:19:55.012Z,8.31
2023-04-06T17:22:57.818Z,8.21
2023-04-06T17:26:03.632Z,8.11
2023-04-06T17:29:07.514Z,8.02
2023-04-06T17:32:12.263Z,8.09
2023-04-06T17:35:14.534Z,8.14
2023-04-06T17:38:16.751Z,8.09
2023-04-06T17:41:19.058Z,8.09
2023-04-06T17:44:22.031Z,8.05
2023-04-06T17:47:25.846Z,8.09
2023-04-06T17:50:28.150Z,8.14
2023-04-06T17:53:32.569Z,8.12
2023-04-06T17:56:34.980Z,8.16
2023-04-06T17:59:41.710Z,8.08
2023-04-06T18:02:47.001Z,8.25
2023-04-06T18:05:50.791Z,8.18
2023-04-06T18:08:54.605Z,8.18
2023-04-06T18:11:57.276Z,8.21
2023-04-06T18:14:59.536Z,8.11
2023-04-06T18:18:05.540Z,8.15
2023-04-06T18:21:07.995Z,8.11
2023-04-06T18:24:15.149Z,7.87
2023-04-06T18:27:25.440Z,7.85
2023-04-06T18:30:27.857Z,7.54
2023-04-06T18:33:30.261Z,7.39
2023-04-06T18:36:32.633Z,7.32
2023-04-06T18:39:36.163Z,7.32
2023-04-06T18:42:38.950Z,7.22
2023-04-06T18:45:43.450Z,7.09
2023-04-06T18:48:45.714Z,6.95
2023-04-06T18:51:47.922Z,7.02
2023-04-06T18:54:50.325Z,6.92
2023-04-06T18:57:52.777Z,6.96
2023-04-06T19:00:57.446Z,6.92
2023-04-06T19:04:00.591Z,6.96
2023-04-06T19:07:03.424Z,7.06
2023-04-06T19:10:07.023Z,7.05
2023-04-06T19:13:09.668Z,6.99
2023-04-06T19:16:12.604Z,6.98
2023-04-06T19:19:15.250Z,6.94
2023-04-06T19:22:17.575Z,6.78
2023-04-06T19:25:19.895Z,6.75
2023-04-06T19:28:22.187Z,6.68
2023-04-06T19:31:24.568Z,6.88
2023-04-06T19:34:28.671Z,6.89
2023-04-06T19:37:31.144Z,6.81
2023-04-06T19:40:33.386Z,6.81
2023-04-06T19:43:35.969Z,6.78
2023-04-06T19:46:38.346Z,6.68
2023-04-06T19:49:41.276Z,6.70
2023-04-06T19:52:43.553Z,6.67
2023-04-06T19:55:46.710Z,6.81
2023-04-06T19:58:48.919Z,6.80
2023-04-06T20:01:51.259Z,6.71
2023-04-06T20:04:53.506Z,6.82
2023-04-06T20:07:55.775Z,6.84
2023-04-06T20:11:02.477Z,6.77
2023-04-06T20:14:05.250Z,6.80
2023-04-06T20:17:07.584Z,6.74
2023-04-06T20:20:11.670Z,6.77
2023-04-06T20:23:14.069Z,6.77
2023-04-06T20:26:16.344Z,6.74
2023-04-06T20:29:18.568Z,6.65
2023-04-06T20:32:21.104Z,6.64
2023-04-06T20:35:23.441Z,6.48
2023-04-06T20:38:33.099Z,6.54
2023-04-06T20:41:36.043Z,6.51
2023-04-06T20:44:38.395Z,6.45
2023-04-06T20:47:40.673Z,6.53
2023-04-06T20:50:43.009Z,6.51
2023-04-06T20:53:46.025Z,6.57
2023-04-06T20:56:48.533Z,6.48
2023-04-06T20:59:51.014Z,6.44
2023-04-06T21:02:53.461Z,6.34
2023-04-06T21:05:59.967Z,6.43
2023-04-06T21:09:02.331Z,6.24
2023-04-06T21:12:05.738Z,6.24
2023-04-06T21:15:08.468Z,6.23
2023-04-06T21:18:10.714Z,6.20
2023-04-06T21:21:13.068Z,6.21
2023-04-06T21:24:15.617Z,6.14
2023-04-06T21:27:18.236Z,6.16
2023-04-06T21:30:20.630Z,6.21
2023-04-06T21:33:23.610Z,6.14
2023-04-06T21:36:26.784Z,6.20
2023-04-06T21:39:29.119Z,6.14
2023-04-06T21:42:32.444Z,6.09
2023-04-06T21:45:34.860Z,6.14
2023-04-06T21:48:37.112Z,6.13
2023-04-06T21:51:39.441Z,6.09
2023-04-06T21:54:41.654Z,6.06
2023-04-06T21:57:46.602Z,6.03
2023-04-06T22:00:48.854Z,5.99
2023-04-06T22:03:51.761Z,5.93
2023-04-06T22:06:54.082Z,5.98
2023-04-06T22:09:56.628Z,5.95
2023-04-06T22:12:58.972Z,5.98
2023-04-06T22:16:01.263Z,6.06
2023-04-06T22:19:03.527Z,5.98
2023-04-06T22:22:05.896Z,5.90
2023-04-06T22:25:08.716Z,5.96
2023-04-06T22:28:11.042Z,5.96
2023-04-06T22:31:13.967Z,5.95
2023-04-06T22:34:16.430Z,5.93
2023-04-06T22:37:18.891Z,5.83
2023-04-06T22:40:21.170Z,5.79
2023-04-06T22:43:23.469Z,5.85
2023-04-06T22:46:25.801Z,5.86
2023-04-06T22:49:28.085Z,5.66
2023-04-06T22:52:30.419Z,5.68
2023-04-06T22:55:32.880Z,5.71
2023-04-06T22:58:35.117Z,5.75
2023-04-06T23:01:37.401Z,5.78
2023-04-06T23:04:39.838Z,5.68
2023-04-06T23:07:42.068Z,5.71
2023-04-06T23:10:44.690Z,5.66
2023-04-06T23:13:46.918Z,5.56
2023-04-06T23:16:49.245Z,5.66
2023-04-06T23:19:51.591Z,5.49
2023-04-06T23:22:54.065Z,5.47
2023-04-06T23:25:56.367Z,5.49
2023-04-06T23:28:58.601Z,5.30
2023-04-06T23:32:01.416Z,5.30
2023-04-06T23:35:03.922Z,5.26
2023-04-06T23:38:06.303Z,5.16
2023-04-06T23:41:08.581Z,5.11
2023-04-06T23:44:10.974Z,5.08
2023-04-06T23:47:13.295Z,5.16
2023-04-06T23:50:15.512Z,5.34
2023-04-06T23:53:17.758Z,5.18
2023-04-06T23:56:20.046Z,5.28
2023-04-06T23:59:22.378Z,5.35
